x

St Georges - 8nm Nw Of Crescent City, Ca (46027) Wave Buoy

2:50pm - Wed 23rd Jul 2014 All times are PDT. -7 hours from GMT.

  • Sig Wave height 2.3ft
  • Swell Direction
  • Peak Period 10s
  • Average Period 7s
  • Wind
    7mph
  • Sea Temp 55°f
  • Air Temp 51°f
  • Sea Pressure 1024.8mb
  • St Georges - 8nm Nw Of Crescent City, Ca
  • St Georges - 8nm Nw Of Crescent City, Ca

More Historic Weather Station data

Upgrade to MSW Pro to gain access to the past 30 days of data for over 8000 Wavebouys and Weather Stations around the globe.

Join Pro

Comparision Forecast

View Surf forecast
   
Wed 07/23 2:50pm 2.5ft 10s 7s 7
mph
1024.8mb 55f 51f
1:50pm 2.5ft 9s 7s 9 11 mph 1024.5mb 56f 52f
12:50pm 2.5ft 11s 7s 4 7 mph 1024.1mb 56f 52f
11:50am 2.5ft 10s 7s 9 11 mph 1023.5mb 55f 53f
10:50am 2.5ft 9s 8s 9
mph
1022.9mb 55f 53f
9:50am 2.5ft 10s 8s 9
mph
1022.4mb 55f 53f
8:50am 2.5ft 10s 7s 7
mph
1022.1mb 55f 53f
7:50am 2.5ft 8s 8s 9
mph
1021.7mb 55f 53f
6:50am 2.5ft 11s 8s 9 11 mph 1020.9mb 55f 53f
5:50am 2.5ft 10s 8s 7
mph
1020.8mb 55f 53f
4:50am 2.5ft 10s 8s 4 7 mph 1020.4mb 56f 53f
3:50am 2.5ft 9s 8s 9
mph
1020.1mb 55f 53f
2:50am 2ft 9s 7s 7
mph
1020.4mb 55f 53f
1:50am 2.5ft 9s 8s 2 4 mph 1020.6mb 56f 53f
12:50am 2.5ft 10s 8s 4
mph
1020.6mb 56f 53f
Tue 07/22 11:50pm 2.5ft 8s 8s 4 7 mph 1020.6mb 55f 53f
10:50pm 2.5ft 10s 8s 7
mph
1020.5mb 56f 53f
9:50pm 3ft 9s 8s 4 7 mph 1020.2mb 56f 53f
8:50pm 2.5ft 8s 8s 2
mph
1019.9mb 56f 53f
7:50pm 3ft 9s 8s 2 4 mph 1019.5mb 56f 53f
6:50pm 3ft 8s 8s 4 7 mph 1019.8mb 56f 53f
5:50pm 3ft 9s 7s 7 9 mph 1019.9mb 56f 53f
4:50pm 2.5ft 10s 7s 7 9 mph 1019.9mb 56f 52f
3:50pm 3.5ft 10s 8s 7 9 mph 1020.1mb 56f 52f
2:50pm 3ft 8s 7s 7 9 mph 1019.9mb 56f 51f
1:50pm 3.5ft 11s 8s 7
mph
1019.6mb 56f 52f
12:50pm 3ft 11s 7s 7
mph
1019.5mb 56f 52f
11:50am 3ft 11s 7s 2 4 mph 1019.7mb 55f 52f
10:50am 3.5ft 11s 7s 4
mph
1019.7mb 55f 51f
9:50am 3.5ft 11s 7s 7
mph
1019.7mb 55f 52f
8:50am 3.5ft 10s 7s 4
mph
1019.4mb 54f 52f
7:50am 4ft 10s 8s 2 4 mph 1018.9mb 54f 51f
6:50am 3.5ft 9s 7s 2
mph
1018.5mb 54f 51f
5:50am 3.5ft 9s 7s  -  2 mph 1018.3mb 54f 51f
4:50am 4ft 9s 7s  -  2 mph 1018.4mb 54f 51f
3:50am 4ft 9s 8s 2
mph
1018.3mb 54f 51f
2:50am 4ft 9s 8s  -  2 mph 1018.7mb 55f 51f
1:50am 3.5ft 9s 7s 2
mph
1018.8mb 55f 51f
12:50am 3.5ft 10s 7s 2
mph
1018.8mb 55f 51f
Mon 07/21 11:50pm 3.5ft 10s 7s 4 7 mph 1018.7mb 55f 51f
10:50pm 3.5ft 9s 7s 7 9 mph 1019.1mb 55f 51f
9:50pm 4ft 10s 7s 7 9 mph 1019.2mb 55f 52f
8:50pm 4ft 9s 7s 7
mph
1019mb 55f 52f
7:50pm 4ft 10s 7s 7 11 mph 1018.9mb 55f 52f
6:50pm 4.5ft 11s 6s 9 11 mph 1018.5mb 55f 52f
5:50pm 4.5ft 9s 6s 11 13 mph 1018.3mb 55f 52f
4:50pm 4.5ft 8s 7s 11 13 mph 1018.5mb 55f 53f
3:50pm 4.5ft 10s 7s 7 9 mph 1018.4mb 55f 53f
2:50pm 4.5ft 10s 7s 4 7 mph 1018.5mb 55f 53f
1:50pm 4.5ft 8s 7s 9 11 mph 1018.4mb 55f 53f
12:50pm 4ft 9s 7s 11 13 mph 1018.2mb 55f 53f
11:50am 4.5ft 11s 7s 11 13 mph 1018mb 54f 53f
10:50am 5ft 11s 7s 9 11 mph 1017.6mb 54f 52f
9:50am 5ft 11s 7s 9 11 mph 1017.4mb 54f 52f
8:50am 5ft 10s 7s 7 9 mph 1017.3mb 54f 52f
7:50am 6ft 10s 8s 7 9 mph 1016.9mb 54f 52f
6:50am  -   -   -  11 13 mph 1016.2mb 54f 52f
5:50am 4.5ft 11s 7s 11 16 mph 1015.9mb 54f 52f
4:50am 5ft 11s 7s 11 13 mph 1015.6mb 53f 52f
3:50am 5ft 10s 7s 11 13 mph 1015.5mb 54f 52f
2:50am 5.5ft 11s 7s 11 16 mph 1015.8mb 54f 52f
1:50am 5ft 11s 7s 11 13 mph 1015.9mb 54f 52f
12:50am 5.5ft 11s 6s 4 7 mph 1015.9mb 53f 51f
Sun 07/20 11:50pm  -   -   -  7 9 mph 1015.8mb 53f 51f
10:50pm 5.5ft 11s 6s 7 11 mph 1016mb 53f 52f
9:50pm 6ft 10s 6s 11 16 mph 1015.8mb 53f 52f
8:50pm 6.5ft 11s 6s 13 18 mph 1015.5mb 54f 53f
7:50pm 6ft 9s 7s 13 16 mph 1015.4mb 55f 53f
6:50pm  -   -   -  9 13 mph 1015.3mb 56f 54f
4:50pm 5ft 10s 7s 9 11 mph 1015.3mb 56f 54f
3:50pm 4.5ft 10s 6s 13 16 mph 1015.2mb 56f 53f
2:50pm 4.5ft 8s 6s 11
mph
1015.5mb 56f 53f
1:50pm 4ft 8s 6s 9 11 mph 1015.8mb 55f 52f
12:50pm 4ft 8s 6s 9
mph
1015.8mb 56f 53f
11:50am 4.5ft 6s 6s 7
mph
1015.7mb 55f 53f
10:50am 4.5ft 8s 6s 9
mph
1015.5mb 55f 52f
9:50am 4.5ft 6s 6s 7
mph
1015.7mb 55f 51f
8:50am 4.5ft 8s 6s 4
mph
1015.3mb 55f 51f
7:50am 5ft 6s 6s 2
mph
1015mb 55f 50f
6:50am 4.5ft 6s 6s 2 4 mph 1014.8mb 55f 50f
5:50am 4.5ft 6s 6s 2
mph
1014.9mb 55f 50f
4:50am 4.5ft 6s 5s  -  2 mph 1015.1mb 55f 51f
3:50am 4.5ft 7s 6s 4
mph
1015.3mb 55f 51f
2:50am 4.5ft 7s 6s 7 9 mph 1015.4mb 54f 51f
1:50am  -   -   -  9 11 mph 1015.6mb 54f 51f
12:50am 4.5ft 7s 5s 11 13 mph 1015.9mb 55f 51f
Sat 07/19 11:50pm 5ft 7s 6s 9 13 mph 1015.7mb 55f 50f
10:50pm 5ft 7s 6s 11 16 mph 1015.4mb 55f 50f